createdAt,value
2019-05-09T00:04:58.333Z,99400.89
2019-05-09T00:10:04.088Z,99399.15
2019-05-09T00:15:08.505Z,99397.69
2019-05-09T00:20:13.657Z,99399.03
2019-05-09T00:25:17.766Z,99391.35
2019-05-09T00:30:23.165Z,99385.92
2019-05-09T00:35:27.292Z,99383.27
2019-05-09T00:40:31.302Z,99382.35
2019-05-09T00:45:35.385Z,99386.47
2019-05-09T00:50:39.404Z,99371.64
2019-05-09T00:55:43.719Z,99371.64
2019-05-09T01:00:47.829Z,99374.75
2019-05-09T01:05:54.161Z,99370.11
2019-05-09T01:11:09.330Z,99363.30
2019-05-09T01:16:04.705Z,99359.20
2019-05-09T01:21:09.032Z,99362.28
2019-05-09T01:26:13.360Z,99356.30
2019-05-09T01:31:17.510Z,99347.72
2019-05-09T01:36:23.506Z,99360.72
2019-05-09T01:41:31.112Z,99358.04
2019-05-09T01:46:34.098Z,99349.38
2019-05-09T01:51:38.251Z,99353.08
2019-05-09T01:56:43.115Z,99354.30
2019-05-09T02:01:47.206Z,99356.55
2019-05-09T02:06:53.606Z,99356.87
2019-05-09T02:11:57.040Z,99367.59
2019-05-09T02:17:03.110Z,99361.72
2019-05-09T02:22:06.897Z,99360.66
2019-05-09T02:27:13.140Z,99373.34
2019-05-09T02:32:16.807Z,99375.83
2019-05-09T02:37:20.852Z,99374.23
2019-05-09T02:42:27.318Z,99378.46
2019-05-09T02:47:30.774Z,99383.19
2019-05-09T02:52:34.890Z,99379.70
2019-05-09T02:57:39.818Z,99388.76
2019-05-09T03:02:43.855Z,99383.28
2019-05-09T03:07:48.818Z,99391.52
2019-05-09T03:12:53.105Z,99379.68
2019-05-09T03:17:59.889Z,99396.98
2019-05-09T03:23:02.814Z,99400.72
2019-05-09T03:28:09.697Z,99406.28
2019-05-09T03:33:12.627Z,99413.70
2019-05-09T03:38:17.953Z,99415.83
2019-05-09T03:43:23.810Z,99405.03
2019-05-09T03:48:28.360Z,99419.78
2019-05-09T03:53:32.423Z,99416.98
2019-05-09T03:58:38.460Z,99426.67
2019-05-09T04:03:42.151Z,99415.65
2019-05-09T04:08:48.202Z,99418.41
2019-05-09T04:13:51.967Z,99421.50
2019-05-09T04:18:57.971Z,99418.11
2019-05-09T04:24:01.709Z,99433.88
2019-05-09T04:29:07.855Z,99426.33
2019-05-09T04:34:11.505Z,99413.95
2019-05-09T04:39:23.436Z,99420.31
2019-05-09T04:44:22.091Z,99435.17
2019-05-09T04:49:29.629Z,99439.11
2019-05-09T04:54:32.764Z,99443.30
2019-05-09T04:59:37.462Z,99452.59
2019-05-09T05:04:41.606Z,99438.13
2019-05-09T05:09:45.611Z,99448.94
2019-05-09T05:14:49.718Z,99464.00
2019-05-09T05:19:53.749Z,99463.52
2019-05-09T05:24:59.649Z,99460.94
2019-05-09T05:30:04.187Z,99458.08
2019-05-09T05:35:08.755Z,99466.56
2019-05-09T05:40:13.229Z,99472.97
2019-05-09T05:45:18.208Z,99480.67
2019-05-09T05:50:23.214Z,99471.85
2019-05-09T05:55:27.956Z,99480.25
2019-05-09T06:00:32.550Z,99487.68
2019-05-09T06:05:38.394Z,99490.83
2019-05-09T06:10:43.450Z,99480.94
2019-05-09T06:15:48.205Z,99490.05
2019-05-09T06:20:52.686Z,99489.08
2019-05-09T06:25:58.805Z,99504.42
2019-05-09T06:31:02.789Z,99498.31
2019-05-09T06:36:08.025Z,99498.52
2019-05-09T06:41:12.892Z,99503.20
2019-05-09T06:46:18.293Z,99508.22
2019-05-09T06:51:22.575Z,99516.86
2019-05-09T06:56:28.265Z,99514.59
2019-05-09T07:01:32.571Z,99520.56
2019-05-09T07:06:38.033Z,99523.20
2019-05-09T07:11:42.559Z,99523.89
2019-05-09T07:16:47.879Z,99528.87
2019-05-09T07:21:52.259Z,99528.73
2019-05-09T07:26:58.372Z,99515.00
2019-05-09T07:32:02.068Z,99516.17
2019-05-09T07:37:08.361Z,99511.63
2019-05-09T07:42:12.133Z,99515.22
2019-05-09T07:47:17.805Z,99527.66
2019-05-09T07:52:23.390Z,99523.39
2019-05-09T07:57:28.536Z,99523.94
2019-05-09T08:02:33.126Z,99521.77
2019-05-09T08:07:38.194Z,99513.94
2019-05-09T08:12:42.468Z,99516.05
2019-05-09T08:17:48.809Z,99519.06
2019-05-09T08:22:58.745Z,99510.22
2019-05-09T08:27:58.965Z,99518.13
2019-05-09T08:33:03.226Z,99521.69
2019-05-09T08:38:08.485Z,99526.45
2019-05-09T08:43:13.389Z,99529.45
2019-05-09T08:48:18.404Z,99534.25
2019-05-09T08:53:22.430Z,99535.95
2019-05-09T08:58:27.739Z,99531.91
2019-05-09T09:03:31.911Z,99534.45
2019-05-09T09:08:37.922Z,99536.97
2019-05-09T09:13:42.371Z,99535.05
2019-05-09T09:18:48.135Z,99535.86
2019-05-09T09:23:52.199Z,99537.48
2019-05-09T09:28:57.729Z,99538.11
2019-05-09T09:34:02.338Z,99545.35
2019-05-09T09:39:07.997Z,99542.64
2019-05-09T09:44:12.353Z,99533.71
2019-05-09T09:49:18.079Z,99544.32
2019-05-09T09:54:22.303Z,99550.02
2019-05-09T09:59:28.248Z,99552.80
2019-05-09T10:04:32.501Z,99547.62
2019-05-09T10:09:36.815Z,99555.69
2019-05-09T10:14:41.145Z,99558.54
2019-05-09T10:19:48.024Z,99568.39
2019-05-09T10:24:51.085Z,99568.89
2019-05-09T10:29:56.817Z,99582.23
2019-05-09T10:35:00.911Z,99587.24
2019-05-09T10:40:05.822Z,99591.04
2019-05-09T10:45:10.574Z,99587.96
2019-05-09T10:50:14.668Z,99583.55
2019-05-09T10:55:18.752Z,99593.05
2019-05-09T11:00:22.850Z,99587.53
2019-05-09T11:05:27.759Z,99584.93
2019-05-09T11:10:32.995Z,99580.81
2019-05-09T11:15:37.715Z,99573.35
2019-05-09T11:20:41.868Z,99559.56
2019-05-09T11:25:47.273Z,99558.31
2019-05-09T11:30:51.456Z,99554.88
2019-05-09T11:35:58.011Z,99554.40
2019-05-09T11:41:01.289Z,99551.62
2019-05-09T11:46:05.388Z,99553.90
2019-05-09T11:51:11.126Z,99547.88
2019-05-09T11:56:17.697Z,99538.77
2019-05-09T12:01:21.165Z,99545.95
2019-05-09T12:06:25.178Z,99539.13
2019-05-09T12:11:29.214Z,99534.72
2019-05-09T12:16:34.013Z,99538.52
2019-05-09T12:21:47.157Z,99536.33
2019-05-09T12:26:44.073Z,99539.88
2019-05-09T12:31:48.648Z,99545.60
2019-05-09T12:36:52.780Z,99549.16
2019-05-09T12:41:57.901Z,99562.81
2019-05-09T12:47:01.966Z,99563.31
2019-05-09T12:52:08.217Z,99565.33
2019-05-09T12:57:12.628Z,99553.34
2019-05-09T13:02:17.786Z,99549.88
2019-05-09T13:07:22.053Z,99548.95
2019-05-09T13:12:28.912Z,99552.05
2019-05-09T13:17:31.859Z,99549.08
2019-05-09T13:22:35.919Z,99543.77
2019-05-09T13:27:39.966Z,99536.40
2019-05-09T13:32:44.265Z,99545.70
2019-05-09T13:37:49.093Z,99537.91
2019-05-09T13:42:53.422Z,99530.86
2019-05-09T13:47:57.985Z,99538.19
2019-05-09T13:53:02.237Z,99533.67
2019-05-09T13:58:07.439Z,99542.43
2019-05-09T14:03:11.702Z,99543.39
2019-05-09T14:08:18.170Z,99535.05
2019-05-09T14:13:23.554Z,99532.03
2019-05-09T14:18:27.677Z,99535.86
2019-05-09T14:23:35.798Z,99534.98
2019-05-09T14:28:37.629Z,99539.90
2019-05-09T14:33:41.697Z,99522.77
2019-05-09T14:38:48.308Z,99520.53
2019-05-09T14:43:51.521Z,99524.70
2019-05-09T14:48:58.201Z,99525.99
2019-05-09T14:54:01.431Z,99531.32
2019-05-09T14:59:05.766Z,99530.17
2019-05-09T15:04:10.111Z,99521.98
2019-05-09T15:09:14.590Z,99526.98
2019-05-09T15:14:19.042Z,99539.84
2019-05-09T15:19:24.282Z,99530.13
2019-05-09T15:24:29.049Z,99533.38
2019-05-09T15:29:33.624Z,99533.73
2019-05-09T15:34:38.308Z,99534.94
2019-05-09T15:39:42.438Z,99532.85
2019-05-09T15:44:47.667Z,99532.41
2019-05-09T15:49:52.340Z,99532.92
2019-05-09T15:54:58.052Z,99535.89
2019-05-09T16:00:02.817Z,99526.88
2019-05-09T16:05:10.612Z,99521.44
2019-05-09T16:10:13.018Z,99529.17
2019-05-09T16:15:18.280Z,99529.50
2019-05-09T16:20:36.487Z,99532.80
2019-05-09T16:25:28.493Z,99527.70
2019-05-09T16:30:32.517Z,99528.68
2019-05-09T16:35:38.187Z,99528.08
2019-05-09T16:40:42.731Z,99516.27
2019-05-09T16:45:47.653Z,99523.62
2019-05-09T16:51:00.493Z,99514.09
2019-05-09T16:55:58.057Z,99518.70
2019-05-09T17:01:02.099Z,99519.16
2019-05-09T17:06:07.651Z,99524.70
2019-05-09T17:11:11.883Z,99527.30
2019-05-09T17:16:17.774Z,99523.08
2019-05-09T17:21:24.383Z,99530.72
2019-05-09T17:26:28.406Z,99532.16
2019-05-09T17:31:32.912Z,99539.27
2019-05-09T17:36:38.549Z,99546.16
2019-05-09T17:41:43.011Z,99545.41
2019-05-09T17:46:48.004Z,99551.44
2019-05-09T17:51:52.217Z,99555.87
2019-05-09T17:56:57.346Z,99556.48
2019-05-09T18:02:02.010Z,99559.56
2019-05-09T18:07:08.546Z,99560.13
2019-05-09T18:12:11.852Z,99562.66
2019-05-09T18:17:17.959Z,99566.03
2019-05-09T18:22:21.846Z,99571.12
2019-05-09T18:27:27.564Z,99583.02
2019-05-09T18:32:31.583Z,99577.98
2019-05-09T18:37:37.247Z,99579.30
2019-05-09T18:42:42.081Z,99587.27
2019-05-09T18:47:48.157Z,99588.72
2019-05-09T18:52:53.713Z,99590.67
2019-05-09T18:57:57.893Z,99592.67
2019-05-09T19:03:06.222Z,99597.64
2019-05-09T19:08:13.062Z,99600.35
2019-05-09T19:13:18.640Z,99609.64
2019-05-09T19:18:26.673Z,99615.25
2019-05-09T19:23:31.132Z,99624.15
2019-05-09T19:28:37.763Z,99627.23
2019-05-09T19:33:46.346Z,99624.88
2019-05-09T19:38:51.464Z,99631.72
2019-05-09T19:43:55.638Z,99634.24
2019-05-09T19:49:02.909Z,99636.69
2019-05-09T19:54:14.805Z,99639.04
2019-05-09T19:59:22.789Z,99643.66
2019-05-09T20:04:30.629Z,99659.30
2019-05-09T20:09:38.520Z,99661.19
2019-05-09T20:14:49.512Z,99661.73
2019-05-09T20:19:54.209Z,99667.77
2019-05-09T20:25:02.898Z,99670.02
2019-05-09T20:30:08.802Z,99678.21
2019-05-09T20:35:13.101Z,99681.31
2019-05-09T20:40:17.225Z,99677.14
2019-05-09T20:45:21.803Z,99685.73
2019-05-09T20:50:26.861Z,99683.13
2019-05-09T20:55:31.000Z,99681.55
2019-05-09T21:00:35.223Z,99682.53
2019-05-09T21:05:39.494Z,99687.28
2019-05-09T21:10:43.746Z,99691.44
2019-05-09T21:15:47.731Z,99691.02
2019-05-09T21:20:51.926Z,99689.26
2019-05-09T21:25:58.128Z,99696.61
2019-05-09T21:31:02.431Z,99697.12
2019-05-09T21:36:06.766Z,99701.55
2019-05-09T21:41:12.882Z,99705.47
2019-05-09T21:46:17.061Z,99705.23
2019-05-09T21:51:21.458Z,99712.55
2019-05-09T21:56:26.451Z,99708.92
2019-05-09T22:01:30.734Z,99707.30
2019-05-09T22:06:35.189Z,99717.28
2019-05-09T22:11:39.299Z,99712.70
2019-05-09T22:16:43.602Z,99718.34
2019-05-09T22:21:47.949Z,99727.46
2019-05-09T22:26:52.051Z,99719.61
2019-05-09T22:31:56.565Z,99717.84
2019-05-09T22:37:00.967Z,99724.36
2019-05-09T22:42:05.096Z,99723.57
2019-05-09T22:47:09.568Z,99727.91
2019-05-09T22:52:13.684Z,99730.25
2019-05-09T22:57:18.090Z,99734.55
2019-05-09T23:02:22.369Z,99738.23
2019-05-09T23:07:26.418Z,99737.62
2019-05-09T23:12:30.441Z,99743.67
2019-05-09T23:17:35.078Z,99742.66
2019-05-09T23:22:39.402Z,99747.38
2019-05-09T23:27:44.200Z,99752.86
2019-05-09T23:32:48.311Z,99745.66
2019-05-09T23:37:52.578Z,99747.50
2019-05-09T23:42:56.896Z,99748.69
2019-05-09T23:48:00.935Z,99758.24
2019-05-09T23:53:05.117Z,99753.91
2019-05-09T23:58:09.156Z,99748.95
